Terminal Aerodrome Forecast
Issued by NWS

Home | Current Version | Previous Version | Text Only | Print | Product List | Glossary On
Versions: 1 2 3 4 5 6 7 8 9 10 11 12 13 14 15 16 17 18 19 20 21 22 23
000
FTUS42 KTBW 230500 RRA
TAFPIE
TAF
KPIE 230541Z 2306/2406 27004KT P6SM FEW150 SCT250
     FM231400 32005KT P6SM FEW250
     FM231900 29010KT P6SM FEW250
     FM240200 29003KT P6SM SKC=

USA.gov is the U.S. government's official web portal to all federal, state and local government web resources and services.